sensor_id;sensor_type;location;lat;lon;timestamp;temperature;humidity
792;DHT22;379;49.022;12.148;2022-07-05T00:01:10;20.50;72.90
792;DHT22;379;49.022;12.148;2022-07-05T00:03:37;20.40;73.80
792;DHT22;379;49.022;12.148;2022-07-05T00:06:04;20.40;74.00
792;DHT22;379;49.022;12.148;2022-07-05T00:08:31;20.30;74.60
792;DHT22;379;49.022;12.148;2022-07-05T00:10:59;20.30;75.90
792;DHT22;379;49.022;12.148;2022-07-05T00:13:26;20.20;76.70
792;DHT22;379;49.022;12.148;2022-07-05T00:15:52;20.20;77.40
792;DHT22;379;49.022;12.148;2022-07-05T00:18:19;20.20;78.30
792;DHT22;379;49.022;12.148;2022-07-05T00:20:46;20.10;79.00
792;DHT22;379;49.022;12.148;2022-07-05T00:23:12;20.10;80.20
792;DHT22;379;49.022;12.148;2022-07-05T00:25:39;20.10;80.50
792;DHT22;379;49.022;12.148;2022-07-05T00:28:07;20.10;81.20
792;DHT22;379;49.022;12.148;2022-07-05T00:30:36;20.00;82.00
792;DHT22;379;49.022;12.148;2022-07-05T00:33:02;20.00;83.30
792;DHT22;379;49.022;12.148;2022-07-05T00:35:29;20.00;83.90
792;DHT22;379;49.022;12.148;2022-07-05T00:37:56;20.00;84.30
792;DHT22;379;49.022;12.148;2022-07-05T00:40:23;19.90;84.70
792;DHT22;379;49.022;12.148;2022-07-05T00:42:50;19.90;85.50
792;DHT22;379;49.022;12.148;2022-07-05T00:45:18;19.90;86.20
792;DHT22;379;49.022;12.148;2022-07-05T00:47:44;19.80;86.40
792;DHT22;379;49.022;12.148;2022-07-05T00:50:11;19.80;87.40
792;DHT22;379;49.022;12.148;2022-07-05T00:52:38;19.80;88.20
792;DHT22;379;49.022;12.148;2022-07-05T00:55:06;19.80;88.60
792;DHT22;379;49.022;12.148;2022-07-05T00:57:33;19.80;89.60
792;DHT22;379;49.022;12.148;2022-07-05T01:00:01;19.70;90.00
792;DHT22;379;49.022;12.148;2022-07-05T01:02:29;19.70;90.20
792;DHT22;379;49.022;12.148;2022-07-05T01:04:56;19.60;90.60
792;DHT22;379;49.022;12.148;2022-07-05T01:07:24;19.60;91.00
792;DHT22;379;49.022;12.148;2022-07-05T01:09:51;19.60;91.20
792;DHT22;379;49.022;12.148;2022-07-05T01:12:18;19.60;91.50
792;DHT22;379;49.022;12.148;2022-07-05T01:14:45;19.60;91.60
792;DHT22;379;49.022;12.148;2022-07-05T01:17:12;19.50;91.90
792;DHT22;379;49.022;12.148;2022-07-05T01:19:41;19.50;92.40
792;DHT22;379;49.022;12.148;2022-07-05T01:22:16;19.50;92.40
792;DHT22;379;49.022;12.148;2022-07-05T01:24:46;19.40;92.50
792;DHT22;379;49.022;12.148;2022-07-05T01:27:13;19.40;93.10
792;DHT22;379;49.022;12.148;2022-07-05T01:29:41;19.30;93.10
792;DHT22;379;49.022;12.148;2022-07-05T01:32:07;19.30;93.30
792;DHT22;379;49.022;12.148;2022-07-05T01:34:37;19.30;93.50
792;DHT22;379;49.022;12.148;2022-07-05T01:37:04;19.30;93.60
792;DHT22;379;49.022;12.148;2022-07-05T01:39:31;19.30;93.70
792;DHT22;379;49.022;12.148;2022-07-05T01:42:00;19.30;93.60
792;DHT22;379;49.022;12.148;2022-07-05T01:44:27;19.20;93.60
792;DHT22;379;49.022;12.148;2022-07-05T01:46:59;19.20;93.60
792;DHT22;379;49.022;12.148;2022-07-05T01:49:29;19.20;93.60
792;DHT22;379;49.022;12.148;2022-07-05T01:51:58;19.10;93.50
792;DHT22;379;49.022;12.148;2022-07-05T01:54:28;19.10;93.20
792;DHT22;379;49.022;12.148;2022-07-05T01:56:54;19.10;92.90
792;DHT22;379;49.022;12.148;2022-07-05T01:59:23;19.00;92.40
792;DHT22;379;49.022;12.148;2022-07-05T02:01:49;18.90;92.20
792;DHT22;379;49.022;12.148;2022-07-05T02:04:16;18.90;92.00
792;DHT22;379;49.022;12.148;2022-07-05T02:06:44;18.90;91.20
792;DHT22;379;49.022;12.148;2022-07-05T02:09:11;18.90;91.00
792;DHT22;379;49.022;12.148;2022-07-05T02:11:38;18.90;90.20
792;DHT22;379;49.022;12.148;2022-07-05T02:14:05;18.90;87.60
792;DHT22;379;49.022;12.148;2022-07-05T02:16:33;18.90;85.60
792;DHT22;379;49.022;12.148;2022-07-05T02:19:00;18.90;83.80
792;DHT22;379;49.022;12.148;2022-07-05T02:21:27;18.90;81.70
792;DHT22;379;49.022;12.148;2022-07-05T02:23:54;18.90;79.30
792;DHT22;379;49.022;12.148;2022-07-05T02:26:21;18.90;77.70
792;DHT22;379;49.022;12.148;2022-07-05T02:28:48;18.90;75.40
792;DHT22;379;49.022;12.148;2022-07-05T02:31:15;18.90;73.70
792;DHT22;379;49.022;12.148;2022-07-05T02:33:43;18.90;73.30
792;DHT22;379;49.022;12.148;2022-07-05T02:36:12;18.80;73.50
792;DHT22;379;49.022;12.148;2022-07-05T02:38:39;18.80;73.80
792;DHT22;379;49.022;12.148;2022-07-05T02:41:07;18.70;73.70
792;DHT22;379;49.022;12.148;2022-07-05T02:43:34;18.70;74.00
792;DHT22;379;49.022;12.148;2022-07-05T02:46:01;18.70;74.40
792;DHT22;379;49.022;12.148;2022-07-05T02:48:28;18.60;73.70
792;DHT22;379;49.022;12.148;2022-07-05T02:50:56;18.60;73.00
792;DHT22;379;49.022;12.148;2022-07-05T02:53:23;18.50;73.00
792;DHT22;379;49.022;12.148;2022-07-05T02:55:50;18.50;72.80
792;DHT22;379;49.022;12.148;2022-07-05T02:58:17;18.40;73.30
792;DHT22;379;49.022;12.148;2022-07-05T03:00:44;18.40;73.20
792;DHT22;379;49.022;12.148;2022-07-05T03:03:11;18.40;73.30
792;DHT22;379;49.022;12.148;2022-07-05T03:05:38;18.30;73.30
792;DHT22;379;49.022;12.148;2022-07-05T03:08:06;18.30;73.60
792;DHT22;379;49.022;12.148;2022-07-05T03:10:33;18.30;73.90
792;DHT22;379;49.022;12.148;2022-07-05T03:13:01;18.30;74.10
792;DHT22;379;49.022;12.148;2022-07-05T03:15:28;18.20;73.60
792;DHT22;379;49.022;12.148;2022-07-05T03:17:55;18.20;73.20
792;DHT22;379;49.022;12.148;2022-07-05T03:20:22;18.20;73.00
792;DHT22;379;49.022;12.148;2022-07-05T03:22:49;18.10;72.70
792;DHT22;379;49.022;12.148;2022-07-05T03:25:17;18.10;72.80
792;DHT22;379;49.022;12.148;2022-07-05T03:27:43;18.00;72.90
792;DHT22;379;49.022;12.148;2022-07-05T03:30:12;18.00;73.10
792;DHT22;379;49.022;12.148;2022-07-05T03:32:39;17.90;73.40
792;DHT22;379;49.022;12.148;2022-07-05T03:35:06;17.80;73.80
792;DHT22;379;49.022;12.148;2022-07-05T03:37:33;17.70;74.60
792;DHT22;379;49.022;12.148;2022-07-05T03:40:00;17.50;75.20
792;DHT22;379;49.022;12.148;2022-07-05T03:42:28;17.50;76.00
792;DHT22;379;49.022;12.148;2022-07-05T03:44:55;17.40;76.30
792;DHT22;379;49.022;12.148;2022-07-05T03:47:22;17.40;76.50
792;DHT22;379;49.022;12.148;2022-07-05T03:49:48;17.40;76.80
792;DHT22;379;49.022;12.148;2022-07-05T03:52:15;17.30;77.00
792;DHT22;379;49.022;12.148;2022-07-05T03:54:42;17.20;77.40
792;DHT22;379;49.022;12.148;2022-07-05T03:57:10;17.20;77.90
792;DHT22;379;49.022;12.148;2022-07-05T03:59:39;17.20;78.00
792;DHT22;379;49.022;12.148;2022-07-05T04:02:05;17.20;78.10
792;DHT22;379;49.022;12.148;2022-07-05T04:04:32;17.20;77.70
792;DHT22;379;49.022;12.148;2022-07-05T04:06:59;17.20;77.40
792;DHT22;379;49.022;12.148;2022-07-05T04:09:26;17.20;77.00
792;DHT22;379;49.022;12.148;2022-07-05T04:11:53;17.20;76.90
792;DHT22;379;49.022;12.148;2022-07-05T04:14:20;17.20;77.00
792;DHT22;379;49.022;12.148;2022-07-05T04:16:48;17.20;77.20
792;DHT22;379;49.022;12.148;2022-07-05T04:19:15;17.20;77.20
792;DHT22;379;49.022;12.148;2022-07-05T04:21:41;17.20;76.90
792;DHT22;379;49.022;12.148;2022-07-05T04:24:08;17.30;76.70
792;DHT22;379;49.022;12.148;2022-07-05T04:26:36;17.30;76.50
792;DHT22;379;49.022;12.148;2022-07-05T04:29:03;17.30;76.50
792;DHT22;379;49.022;12.148;2022-07-05T04:31:29;17.40;76.40
792;DHT22;379;49.022;12.148;2022-07-05T04:33:58;18.10;75.60
792;DHT22;379;49.022;12.148;2022-07-05T04:36:24;19.10;72.50
792;DHT22;379;49.022;12.148;2022-07-05T04:38:51;20.10;69.60
792;DHT22;379;49.022;12.148;2022-07-05T04:41:18;20.70;66.10
792;DHT22;379;49.022;12.148;2022-07-05T04:43:45;21.10;64.90
792;DHT22;379;49.022;12.148;2022-07-05T04:46:12;21.00;63.70
792;DHT22;379;49.022;12.148;2022-07-05T04:48:38;20.50;64.20
792;DHT22;379;49.022;12.148;2022-07-05T04:51:06;20.50;65.30
792;DHT22;379;49.022;12.148;2022-07-05T04:53:33;21.10;64.50
792;DHT22;379;49.022;12.148;2022-07-05T04:56:00;21.70;63.30
792;DHT22;379;49.022;12.148;2022-07-05T04:58:27;22.40;62.10
792;DHT22;379;49.022;12.148;2022-07-05T05:00:53;23.40;59.70
792;DHT22;379;49.022;12.148;2022-07-05T05:03:20;24.10;58.00
792;DHT22;379;49.022;12.148;2022-07-05T05:05:47;24.60;56.50
792;DHT22;379;49.022;12.148;2022-07-05T05:08:15;25.10;55.20
792;DHT22;379;49.022;12.148;2022-07-05T05:10:42;25.70;53.90
792;DHT22;379;49.022;12.148;2022-07-05T05:13:08;25.90;52.70
792;DHT22;379;49.022;12.148;2022-07-05T05:15:35;25.90;52.70
792;DHT22;379;49.022;12.148;2022-07-05T05:18:02;26.10;52.50
792;DHT22;379;49.022;12.148;2022-07-05T05:20:29;26.30;51.70
792;DHT22;379;49.022;12.148;2022-07-05T05:22:56;26.20;51.80
792;DHT22;379;49.022;12.148;2022-07-05T05:25:24;26.70;51.50
792;DHT22;379;49.022;12.148;2022-07-05T05:27:52;27.40;50.10
792;DHT22;379;49.022;12.148;2022-07-05T05:30:19;27.70;49.50
792;DHT22;379;49.022;12.148;2022-07-05T05:32:46;27.90;47.90
792;DHT22;379;49.022;12.148;2022-07-05T05:35:13;27.50;48.20
792;DHT22;379;49.022;12.148;2022-07-05T05:37:45;26.90;49.30
792;DHT22;379;49.022;12.148;2022-07-05T05:40:13;27.00;49.50
792;DHT22;379;49.022;12.148;2022-07-05T05:42:41;27.00;50.00
792;DHT22;379;49.022;12.148;2022-07-05T05:45:09;27.50;48.80
792;DHT22;379;49.022;12.148;2022-07-05T05:47:43;27.70;49.30
792;DHT22;379;49.022;12.148;2022-07-05T05:50:10;27.80;48.30
792;DHT22;379;49.022;12.148;2022-07-05T05:52:37;28.00;47.90
792;DHT22;379;49.022;12.148;2022-07-05T05:55:04;28.30;47.40
792;DHT22;379;49.022;12.148;2022-07-05T05:57:31;28.30;46.80
792;DHT22;379;49.022;12.148;2022-07-05T06:00:01;27.90;47.40
792;DHT22;379;49.022;12.148;2022-07-05T06:02:28;27.50;48.40
792;DHT22;379;49.022;12.148;2022-07-05T06:04:55;27.80;48.60
792;DHT22;379;49.022;12.148;2022-07-05T06:07:21;28.30;48.00
792;DHT22;379;49.022;12.148;2022-07-05T06:09:48;28.20;48.00
792;DHT22;379;49.022;12.148;2022-07-05T06:12:15;28.70;48.00
792;DHT22;379;49.022;12.148;2022-07-05T06:14:42;29.30;46.80
792;DHT22;379;49.022;12.148;2022-07-05T06:17:10;30.10;46.10
792;DHT22;379;49.022;12.148;2022-07-05T06:19:36;30.90;45.40
792;DHT22;379;49.022;12.148;2022-07-05T06:22:03;31.70;44.60
792;DHT22;379;49.022;12.148;2022-07-05T06:24:30;32.00;43.90
792;DHT22;379;49.022;12.148;2022-07-05T06:26:57;32.20;43.00
792;DHT22;379;49.022;12.148;2022-07-05T06:29:24;32.50;41.60
792;DHT22;379;49.022;12.148;2022-07-05T06:31:50;32.60;40.30
792;DHT22;379;49.022;12.148;2022-07-05T06:34:19;32.00;40.70
792;DHT22;379;49.022;12.148;2022-07-05T06:36:45;31.60;40.90
792;DHT22;379;49.022;12.148;2022-07-05T06:39:12;31.60;41.90
792;DHT22;379;49.022;12.148;2022-07-05T06:41:39;31.80;41.90
792;DHT22;379;49.022;12.148;2022-07-05T06:44:05;32.50;41.80
792;DHT22;379;49.022;12.148;2022-07-05T06:46:32;33.30;40.70
792;DHT22;379;49.022;12.148;2022-07-05T06:48:59;33.80;39.60
792;DHT22;379;49.022;12.148;2022-07-05T06:51:27;34.20;38.50
792;DHT22;379;49.022;12.148;2022-07-05T06:53:54;34.50;38.30
792;DHT22;379;49.022;12.148;2022-07-05T06:56:20;34.80;37.40
792;DHT22;379;49.022;12.148;2022-07-05T06:58:47;34.90;37.10
792;DHT22;379;49.022;12.148;2022-07-05T07:01:14;35.10;37.20
792;DHT22;379;49.022;12.148;2022-07-05T07:03:41;35.20;37.20
792;DHT22;379;49.022;12.148;2022-07-05T07:06:08;35.20;36.80
792;DHT22;379;49.022;12.148;2022-07-05T07:08:36;35.30;36.30
792;DHT22;379;49.022;12.148;2022-07-05T07:11:17;35.40;36.30
792;DHT22;379;49.022;12.148;2022-07-05T07:13:44;35.60;36.40
792;DHT22;379;49.022;12.148;2022-07-05T07:16:10;35.60;36.10
792;DHT22;379;49.022;12.148;2022-07-05T07:18:37;35.30;35.00
792;DHT22;379;49.022;12.148;2022-07-05T07:21:04;35.00;35.90
792;DHT22;379;49.022;12.148;2022-07-05T07:23:31;34.80;37.20
792;DHT22;379;49.022;12.148;2022-07-05T07:26:00;34.80;38.00
792;DHT22;379;49.022;12.148;2022-07-05T07:28:26;35.00;38.30
792;DHT22;379;49.022;12.148;2022-07-05T07:30:54;35.20;37.30
792;DHT22;379;49.022;12.148;2022-07-05T07:33:20;35.30;37.30
792;DHT22;379;49.022;12.148;2022-07-05T07:35:47;35.20;38.10
792;DHT22;379;49.022;12.148;2022-07-05T07:38:14;35.20;37.40
792;DHT22;379;49.022;12.148;2022-07-05T07:40:41;35.20;36.10
792;DHT22;379;49.022;12.148;2022-07-05T07:43:09;34.40;35.80
792;DHT22;379;49.022;12.148;2022-07-05T07:45:36;33.70;37.80
792;DHT22;379;49.022;12.148;2022-07-05T07:48:03;33.40;39.60
792;DHT22;379;49.022;12.148;2022-07-05T07:50:30;33.80;39.40
792;DHT22;379;49.022;12.148;2022-07-05T07:52:56;34.20;39.00
792;DHT22;379;49.022;12.148;2022-07-05T07:55:23;34.50;37.80
792;DHT22;379;49.022;12.148;2022-07-05T07:57:50;34.80;37.10
792;DHT22;379;49.022;12.148;2022-07-05T08:00:18;34.90;36.80
792;DHT22;379;49.022;12.148;2022-07-05T08:02:45;35.10;36.30
792;DHT22;379;49.022;12.148;2022-07-05T08:05:12;35.10;35.90
792;DHT22;379;49.022;12.148;2022-07-05T08:07:39;35.10;36.20
792;DHT22;379;49.022;12.148;2022-07-05T08:10:07;34.60;35.80
792;DHT22;379;49.022;12.148;2022-07-05T08:12:34;34.30;37.10
792;DHT22;379;49.022;12.148;2022-07-05T08:15:01;34.30;36.90
792;DHT22;379;49.022;12.148;2022-07-05T08:17:29;34.60;37.70
792;DHT22;379;49.022;12.148;2022-07-05T08:19:56;34.90;36.80
792;DHT22;379;49.022;12.148;2022-07-05T08:22:42;35.00;37.00
792;DHT22;379;49.022;12.148;2022-07-05T08:25:09;35.00;36.80
792;DHT22;379;49.022;12.148;2022-07-05T08:27:39;35.00;36.30
792;DHT22;379;49.022;12.148;2022-07-05T08:30:07;34.70;34.80
792;DHT22;379;49.022;12.148;2022-07-05T08:32:36;34.40;36.40
792;DHT22;379;49.022;12.148;2022-07-05T08:35:03;34.30;36.30
792;DHT22;379;49.022;12.148;2022-07-05T08:37:30;34.30;36.50
792;DHT22;379;49.022;12.148;2022-07-05T08:39:57;34.30;36.50
792;DHT22;379;49.022;12.148;2022-07-05T08:42:24;34.30;35.80
792;DHT22;379;49.022;12.148;2022-07-05T08:44:52;34.00;36.70
792;DHT22;379;49.022;12.148;2022-07-05T08:47:22;34.00;37.70
792;DHT22;379;49.022;12.148;2022-07-05T08:49:52;33.70;36.20
792;DHT22;379;49.022;12.148;2022-07-05T08:52:19;33.40;37.00
792;DHT22;379;49.022;12.148;2022-07-05T08:54:47;33.20;36.20
792;DHT22;379;49.022;12.148;2022-07-05T08:57:14;32.30;36.30
792;DHT22;379;49.022;12.148;2022-07-05T08:59:41;31.00;37.90
792;DHT22;379;49.022;12.148;2022-07-05T09:02:11;30.00;40.00
792;DHT22;379;49.022;12.148;2022-07-05T09:04:42;29.20;42.00
792;DHT22;379;49.022;12.148;2022-07-05T09:07:13;28.80;41.50
792;DHT22;379;49.022;12.148;2022-07-05T09:09:42;28.70;42.30
792;DHT22;379;49.022;12.148;2022-07-05T09:12:11;28.50;42.00
792;DHT22;379;49.022;12.148;2022-07-05T09:14:39;28.30;43.40
792;DHT22;379;49.022;12.148;2022-07-05T09:17:06;28.50;42.90
792;DHT22;379;49.022;12.148;2022-07-05T09:19:32;28.70;42.40
792;DHT22;379;49.022;12.148;2022-07-05T09:22:04;29.20;43.00
792;DHT22;379;49.022;12.148;2022-07-05T09:24:42;29.30;41.00
792;DHT22;379;49.022;12.148;2022-07-05T09:27:09;29.20;42.60
792;DHT22;379;49.022;12.148;2022-07-05T09:29:36;29.60;42.90
792;DHT22;379;49.022;12.148;2022-07-05T09:32:04;29.70;39.40
792;DHT22;379;49.022;12.148;2022-07-05T09:34:31;29.60;39.20
792;DHT22;379;49.022;12.148;2022-07-05T09:37:01;29.50;39.90
792;DHT22;379;49.022;12.148;2022-07-05T09:39:38;29.50;40.40
792;DHT22;379;49.022;12.148;2022-07-05T09:42:13;29.70;39.50
792;DHT22;379;49.022;12.148;2022-07-05T09:44:42;30.20;39.90
792;DHT22;379;49.022;12.148;2022-07-05T09:47:10;30.50;40.20
792;DHT22;379;49.022;12.148;2022-07-05T09:49:38;30.80;41.60
792;DHT22;379;49.022;12.148;2022-07-05T09:52:07;30.80;37.70
792;DHT22;379;49.022;12.148;2022-07-05T09:54:36;30.00;38.00
792;DHT22;379;49.022;12.148;2022-07-05T09:57:03;29.30;38.70
792;DHT22;379;49.022;12.148;2022-07-05T10:01:58;28.50;40.30
792;DHT22;379;49.022;12.148;2022-07-05T10:04:25;29.00;40.30
792;DHT22;379;49.022;12.148;2022-07-05T10:06:51;29.50;39.10
792;DHT22;379;49.022;12.148;2022-07-05T10:09:19;29.70;38.00
792;DHT22;379;49.022;12.148;2022-07-05T10:11:47;29.60;39.70
792;DHT22;379;49.022;12.148;2022-07-05T10:14:19;29.30;39.60
792;DHT22;379;49.022;12.148;2022-07-05T10:17:00;28.70;39.60
792;DHT22;379;49.022;12.148;2022-07-05T10:19:32;28.20;40.50
792;DHT22;379;49.022;12.148;2022-07-05T10:22:00;27.60;41.20
792;DHT22;379;49.022;12.148;2022-07-05T10:24:32;27.40;42.50
792;DHT22;379;49.022;12.148;2022-07-05T10:27:02;27.40;41.30
792;DHT22;379;49.022;12.148;2022-07-05T10:29:32;27.50;39.30
792;DHT22;379;49.022;12.148;2022-07-05T10:32:01;27.70;38.70
792;DHT22;379;49.022;12.148;2022-07-05T10:34:32;28.10;38.60
792;DHT22;379;49.022;12.148;2022-07-05T10:36:59;28.40;38.70
792;DHT22;379;49.022;12.148;2022-07-05T10:39:26;28.60;38.10
792;DHT22;379;49.022;12.148;2022-07-05T10:41:54;28.70;38.60
792;DHT22;379;49.022;12.148;2022-07-05T10:44:30;28.90;40.10
792;DHT22;379;49.022;12.148;2022-07-05T10:47:07;28.70;38.10
792;DHT22;379;49.022;12.148;2022-07-05T10:49:35;28.60;39.50
792;DHT22;379;49.022;12.148;2022-07-05T10:52:03;28.30;38.20
792;DHT22;379;49.022;12.148;2022-07-05T10:54:30;28.20;40.80
792;DHT22;379;49.022;12.148;2022-07-05T10:57:20;28.30;41.40
792;DHT22;379;49.022;12.148;2022-07-05T11:00:08;28.50;40.20
792;DHT22;379;49.022;12.148;2022-07-05T11:02:36;28.80;40.20
792;DHT22;379;49.022;12.148;2022-07-05T11:05:03;29.00;39.40
792;DHT22;379;49.022;12.148;2022-07-05T11:07:58;29.20;39.60
792;DHT22;379;49.022;12.148;2022-07-05T11:10:25;29.40;36.80
792;DHT22;379;49.022;12.148;2022-07-05T11:12:52;29.40;35.60
792;DHT22;379;49.022;12.148;2022-07-05T11:15:20;29.40;36.30
792;DHT22;379;49.022;12.148;2022-07-05T11:17:47;29.60;37.40
792;DHT22;379;49.022;12.148;2022-07-05T11:20:15;29.80;35.70
792;DHT22;379;49.022;12.148;2022-07-05T11:23:06;29.70;34.10
792;DHT22;379;49.022;12.148;2022-07-05T11:25:35;29.30;34.20
792;DHT22;379;49.022;12.148;2022-07-05T11:28:22;28.90;34.60
792;DHT22;379;49.022;12.148;2022-07-05T11:30:53;29.00;36.50
792;DHT22;379;49.022;12.148;2022-07-05T11:33:41;29.20;35.40
792;DHT22;379;49.022;12.148;2022-07-05T11:36:23;29.20;33.50
792;DHT22;379;49.022;12.148;2022-07-05T11:39:12;28.80;33.00
792;DHT22;379;49.022;12.148;2022-07-05T11:41:42;28.70;36.90
792;DHT22;379;49.022;12.148;2022-07-05T11:44:10;29.00;34.90
792;DHT22;379;49.022;12.148;2022-07-05T11:46:40;29.10;33.50
792;DHT22;379;49.022;12.148;2022-07-05T11:49:07;29.40;33.00
792;DHT22;379;49.022;12.148;2022-07-05T11:51:34;29.40;33.00
792;DHT22;379;49.022;12.148;2022-07-05T11:54:02;29.40;33.50
792;DHT22;379;49.022;12.148;2022-07-05T11:56:29;29.20;32.40
792;DHT22;379;49.022;12.148;2022-07-05T11:58:56;29.30;34.10
792;DHT22;379;49.022;12.148;2022-07-05T12:01:23;29.70;35.80
792;DHT22;379;49.022;12.148;2022-07-05T12:03:54;30.10;35.40
792;DHT22;379;49.022;12.148;2022-07-05T12:06:22;30.20;33.70
792;DHT22;379;49.022;12.148;2022-07-05T12:09:02;30.10;29.90
792;DHT22;379;49.022;12.148;2022-07-05T12:11:29;29.70;29.40
792;DHT22;379;49.022;12.148;2022-07-05T12:14:20;29.50;31.40
792;DHT22;379;49.022;12.148;2022-07-05T12:16:47;29.60;34.60
792;DHT22;379;49.022;12.148;2022-07-05T12:19:25;29.60;32.80
792;DHT22;379;49.022;12.148;2022-07-05T12:21:53;29.70;34.30
792;DHT22;379;49.022;12.148;2022-07-05T12:24:20;29.80;30.40
792;DHT22;379;49.022;12.148;2022-07-05T12:26:47;29.40;30.30
792;DHT22;379;49.022;12.148;2022-07-05T12:29:16;29.30;31.20
792;DHT22;379;49.022;12.148;2022-07-05T12:31:58;29.10;30.30
792;DHT22;379;49.022;12.148;2022-07-05T12:34:27;28.80;30.50
792;DHT22;379;49.022;12.148;2022-07-05T12:36:55;28.70;33.50
792;DHT22;379;49.022;12.148;2022-07-05T12:39:22;29.00;34.00
792;DHT22;379;49.022;12.148;2022-07-05T12:41:49;29.00;31.40
792;DHT22;379;49.022;12.148;2022-07-05T12:44:18;29.00;29.40
792;DHT22;379;49.022;12.148;2022-07-05T12:46:46;28.80;30.10
792;DHT22;379;49.022;12.148;2022-07-05T12:49:14;29.00;31.90
792;DHT22;379;49.022;12.148;2022-07-05T12:51:44;29.30;32.70
792;DHT22;379;49.022;12.148;2022-07-05T12:54:19;29.50;32.60
792;DHT22;379;49.022;12.148;2022-07-05T12:57:05;29.40;30.00
792;DHT22;379;49.022;12.148;2022-07-05T13:00:03;29.10;29.90
792;DHT22;379;49.022;12.148;2022-07-05T13:02:34;28.50;30.00
792;DHT22;379;49.022;12.148;2022-07-05T13:05:01;28.00;30.80
792;DHT22;379;49.022;12.148;2022-07-05T13:07:29;27.90;31.10
792;DHT22;379;49.022;12.148;2022-07-05T13:10:13;27.90;31.20
792;DHT22;379;49.022;12.148;2022-07-05T13:12:40;27.90;31.40
792;DHT22;379;49.022;12.148;2022-07-05T13:15:08;28.20;31.80
792;DHT22;379;49.022;12.148;2022-07-05T13:17:34;28.50;31.30
792;DHT22;379;49.022;12.148;2022-07-05T13:20:01;28.70;30.00
792;DHT22;379;49.022;12.148;2022-07-05T13:22:30;28.70;31.00
792;DHT22;379;49.022;12.148;2022-07-05T13:24:57;28.90;33.40
792;DHT22;379;49.022;12.148;2022-07-05T13:27:23;29.00;32.70
792;DHT22;379;49.022;12.148;2022-07-05T13:29:50;29.20;33.90
792;DHT22;379;49.022;12.148;2022-07-05T13:32:17;29.30;33.40
792;DHT22;379;49.022;12.148;2022-07-05T13:34:47;29.20;30.30
792;DHT22;379;49.022;12.148;2022-07-05T13:37:14;29.20;30.30
792;DHT22;379;49.022;12.148;2022-07-05T13:39:42;29.30;31.90
792;DHT22;379;49.022;12.148;2022-07-05T13:42:09;29.40;31.50
792;DHT22;379;49.022;12.148;2022-07-05T13:44:36;29.40;31.20
792;DHT22;379;49.022;12.148;2022-07-05T13:47:03;29.20;29.20
792;DHT22;379;49.022;12.148;2022-07-05T13:49:30;28.80;29.90
792;DHT22;379;49.022;12.148;2022-07-05T13:51:57;28.80;32.00
792;DHT22;379;49.022;12.148;2022-07-05T13:54:26;28.90;33.50
792;DHT22;379;49.022;12.148;2022-07-05T13:56:54;29.10;33.10
792;DHT22;379;49.022;12.148;2022-07-05T13:59:21;29.10;30.00
792;DHT22;379;49.022;12.148;2022-07-05T14:01:48;29.00;29.90
792;DHT22;379;49.022;12.148;2022-07-05T14:04:14;28.80;29.60
792;DHT22;379;49.022;12.148;2022-07-05T14:06:41;28.70;30.00
792;DHT22;379;49.022;12.148;2022-07-05T14:09:08;28.50;29.70
792;DHT22;379;49.022;12.148;2022-07-05T14:11:34;28.30;29.90
792;DHT22;379;49.022;12.148;2022-07-05T14:14:03;28.30;30.10
792;DHT22;379;49.022;12.148;2022-07-05T14:16:29;28.30;30.10
792;DHT22;379;49.022;12.148;2022-07-05T14:18:56;28.30;29.60
792;DHT22;379;49.022;12.148;2022-07-05T14:21:23;28.10;29.30
792;DHT22;379;49.022;12.148;2022-07-05T14:23:50;28.00;29.50
792;DHT22;379;49.022;12.148;2022-07-05T14:26:16;27.90;29.30
792;DHT22;379;49.022;12.148;2022-07-05T14:28:43;27.90;29.70
792;DHT22;379;49.022;12.148;2022-07-05T14:31:11;27.90;30.30
792;DHT22;379;49.022;12.148;2022-07-05T14:33:38;27.90;29.80
792;DHT22;379;49.022;12.148;2022-07-05T14:36:05;28.00;29.70
792;DHT22;379;49.022;12.148;2022-07-05T14:38:32;28.00;29.90
792;DHT22;379;49.022;12.148;2022-07-05T14:40:59;28.00;29.50
792;DHT22;379;49.022;12.148;2022-07-05T14:43:26;28.00;29.40
792;DHT22;379;49.022;12.148;2022-07-05T14:45:53;28.00;29.40
792;DHT22;379;49.022;12.148;2022-07-05T14:48:21;28.00;30.20
792;DHT22;379;49.022;12.148;2022-07-05T14:50:48;28.20;31.20
792;DHT22;379;49.022;12.148;2022-07-05T14:53:15;28.40;29.90
792;DHT22;379;49.022;12.148;2022-07-05T14:55:44;28.40;29.40
792;DHT22;379;49.022;12.148;2022-07-05T14:58:11;28.30;29.30
792;DHT22;379;49.022;12.148;2022-07-05T15:00:37;28.20;29.20
792;DHT22;379;49.022;12.148;2022-07-05T15:03:04;28.20;30.00
792;DHT22;379;49.022;12.148;2022-07-05T15:05:35;28.10;29.40
792;DHT22;379;49.022;12.148;2022-07-05T15:08:02;28.00;29.80
792;DHT22;379;49.022;12.148;2022-07-05T15:10:28;27.90;30.40
792;DHT22;379;49.022;12.148;2022-07-05T15:12:55;28.00;31.60
792;DHT22;379;49.022;12.148;2022-07-05T15:15:22;28.10;30.90
792;DHT22;379;49.022;12.148;2022-07-05T15:17:49;28.10;29.60
792;DHT22;379;49.022;12.148;2022-07-05T15:20:16;28.10;29.60
792;DHT22;379;49.022;12.148;2022-07-05T15:22:49;28.00;29.10
792;DHT22;379;49.022;12.148;2022-07-05T15:25:16;27.90;30.00
792;DHT22;379;49.022;12.148;2022-07-05T15:27:43;27.90;32.40
792;DHT22;379;49.022;12.148;2022-07-05T15:30:10;27.90;30.00
792;DHT22;379;49.022;12.148;2022-07-05T15:32:38;27.80;29.60
792;DHT22;379;49.022;12.148;2022-07-05T15:35:05;27.80;30.40
792;DHT22;379;49.022;12.148;2022-07-05T15:37:31;27.80;30.10
792;DHT22;379;49.022;12.148;2022-07-05T15:39:59;27.70;31.10
792;DHT22;379;49.022;12.148;2022-07-05T15:42:27;27.50;31.60
792;DHT22;379;49.022;12.148;2022-07-05T15:44:54;27.40;32.20
792;DHT22;379;49.022;12.148;2022-07-05T15:47:20;27.30;32.80
792;DHT22;379;49.022;12.148;2022-07-05T15:49:47;27.40;33.70
792;DHT22;379;49.022;12.148;2022-07-05T15:52:14;27.50;32.20
792;DHT22;379;49.022;12.148;2022-07-05T15:54:42;27.60;31.70
792;DHT22;379;49.022;12.148;2022-07-05T15:57:10;27.60;31.50
792;DHT22;379;49.022;12.148;2022-07-05T15:59:37;27.60;30.80
792;DHT22;379;49.022;12.148;2022-07-05T16:02:04;27.50;31.00
792;DHT22;379;49.022;12.148;2022-07-05T16:04:31;27.50;31.10
792;DHT22;379;49.022;12.148;2022-07-05T16:06:58;27.40;31.30
792;DHT22;379;49.022;12.148;2022-07-05T16:09:26;27.40;31.10
792;DHT22;379;49.022;12.148;2022-07-05T16:11:53;27.30;31.20
792;DHT22;379;49.022;12.148;2022-07-05T16:14:21;27.30;31.50
792;DHT22;379;49.022;12.148;2022-07-05T16:16:48;27.20;31.80
792;DHT22;379;49.022;12.148;2022-07-05T16:19:15;27.20;31.50
792;DHT22;379;49.022;12.148;2022-07-05T16:21:42;27.30;32.10
792;DHT22;379;49.022;12.148;2022-07-05T16:24:08;27.30;32.40
792;DHT22;379;49.022;12.148;2022-07-05T16:26:36;27.30;31.60